Time;durP1;ratioP1;P1;durP2;ratioP2;P2;SDS_P1;SDS_P2;PMS_P1;PMS_P2;Temp;Humidity;BMP_temperature;BMP_pressure;BME280_temperature;BME280_humidity;BME280_pressure;Samples;Min_cycle;Max_cycle;Signal;HPM_P1;HPM_P2
2022/05/30 00:01:15;;;;;;;14.80;6.15;;;;;;;11.60;82.40;100181.78;1591071;87;25891;-77
2022/05/30 00:03:42;;;;;;;9.23;6.10;;;;;;;11.61;82.17;100190.66;1603743;87;28321;-77
2022/05/30 00:06:13;;;;;;;7.53;5.65;;;;;;;11.60;82.18;100181.78;1611183;87;26019;-77
2022/05/30 00:08:40;;;;;;;9.85;5.45;;;;;;;11.62;82.14;100181.56;1606678;86;25904;-77
2022/05/30 00:11:11;;;;;;;8.53;5.35;;;;;;;11.64;82.15;100183.02;1637472;85;25867;-77
2022/05/30 00:13:38;;;;;;;7.45;6.00;;;;;;;11.65;82.16;100180.63;1649813;85;26048;-77
2022/05/30 00:16:08;;;;;;;10.43;5.47;;;;;;;11.64;82.23;100188.39;1649886;85;27429;-77
2022/05/30 00:18:34;;;;;;;10.50;5.20;;;;;;;11.63;82.08;100184.58;1632461;85;25978;-77
2022/05/30 00:21:01;;;;;;;6.42;5.42;;;;;;;11.62;82.10;100181.05;1648117;86;25850;-77
2022/05/30 00:23:27;;;;;;;9.25;6.10;;;;;;;11.62;82.08;100173.01;1641856;85;26578;-77
2022/05/30 00:25:54;;;;;;;6.22;5.47;;;;;;;11.63;82.02;100184.58;1612027;86;26598;-77
2022/05/30 00:28:21;;;;;;;10.13;5.47;;;;;;;11.63;82.09;100181.89;1614716;86;27470;-77
2022/05/30 00:30:48;;;;;;;8.98;5.85;;;;;;;11.60;82.16;100181.78;1617151;87;25876;-77
2022/05/30 00:33:17;;;;;;;11.00;6.40;;;;;;;11.56;82.25;100182.38;1637409;85;25832;-77
2022/05/30 00:35:45;;;;;;;10.40;6.17;;;;;;;11.49;82.33;100170.30;1614614;86;26629;-77
2022/05/30 00:38:11;;;;;;;8.38;5.90;;;;;;;11.44;82.47;100174.62;1641740;85;25856;-77
2022/05/30 00:40:39;;;;;;;7.37;6.55;;;;;;;11.40;82.51;100174.70;1640728;86;28256;-77
2022/05/30 00:43:37;;;;;;;9.15;6.47;;;;;;;11.36;82.70;100174.78;1623735;86;25881;-77
2022/05/30 00:46:11;;;;;;;7.97;6.17;;;;;;;11.35;82.84;100179.35;1615486;85;25925;-77
2022/05/30 00:48:40;;;;;;;7.40;6.15;;;;;;;11.33;83.06;100173.33;1643446;85;26576;-77
2022/05/30 00:51:14;;;;;;;10.08;6.15;;;;;;;11.33;83.16;100161.27;1643762;85;25663;-77
2022/05/30 00:53:44;;;;;;;9.13;6.08;;;;;;;11.33;83.27;100168.50;1632055;86;27477;-77
2022/05/30 00:56:13;;;;;;;6.70;6.03;;;;;;;11.31;83.16;100158.50;1611693;86;26482;-77
2022/05/30 00:58:47;;;;;;;7.67;6.62;;;;;;;11.31;83.41;100158.50;1642251;85;25868;-77
2022/05/30 01:01:18;;;;;;;7.33;6.62;;;;;;;11.29;83.49;100150.63;1597822;88;25871;-77
2022/05/30 01:06:39;;;;;;;9.30;7.25;;;;;;;11.29;83.76;100145.27;1634271;85;27472;-77
2022/05/30 01:09:10;;;;;;;12.23;7.20;;;;;;;11.26;83.78;100144.86;1628660;85;26563;-77
2022/05/30 01:11:58;;;;;;;9.15;6.95;;;;;;;11.25;83.82;100142.69;1635866;85;26583;-77
2022/05/30 01:14:32;;;;;;;9.33;6.97;;;;;;;11.28;83.97;100142.80;1646742;85;25870;-77
2022/05/30 01:17:00;;;;;;;10.00;7.25;;;;;;;11.28;84.05;100138.78;1642395;85;25367;-77
2022/05/30 01:19:54;;;;;;;15.13;7.90;;;;;;;11.29;84.26;100144.47;1632352;86;28294;-77
2022/05/30 01:22:52;;;;;;;8.28;7.22;;;;;;;11.29;84.30;100138.57;1631087;85;26336;-77
2022/05/30 01:25:50;;;;;;;12.07;7.95;;;;;;;11.29;84.37;100139.91;1641265;86;25988;-77
2022/05/30 01:28:48;;;;;;;12.47;8.40;;;;;;;11.28;84.38;100137.44;1639286;85;25988;-77
2022/05/30 01:31:16;;;;;;;9.60;7.58;;;;;;;11.28;84.61;100138.27;1658613;85;26548;-77
2022/05/30 01:33:43;;;;;;;10.08;7.83;;;;;;;11.27;84.71;100126.42;1658224;85;28332;-77
2022/05/30 01:36:09;;;;;;;11.73;8.05;;;;;;;11.28;84.89;100128.06;1620178;86;26149;-78
2022/05/30 01:38:36;;;;;;;11.15;7.65;;;;;;;11.26;84.86;100126.93;1588472;88;25917;-78
2022/05/30 01:41:04;;;;;;;11.93;8.43;;;;;;;11.26;84.90;100118.05;1608181;88;25865;-78
2022/05/30 01:43:32;;;;;;;10.50;7.87;;;;;;;11.29;84.88;100125.70;1617444;85;25886;-77
2022/05/30 01:46:08;;;;;;;11.30;7.83;;;;;;;11.31;84.93;100123.64;1594659;88;28453;-77
2022/05/30 01:48:37;;;;;;;13.88;7.75;;;;;;;11.35;85.14;100125.72;1608565;87;26139;-77
2022/05/30 01:51:04;;;;;;;15.35;8.28;;;;;;;11.37;85.02;100124.17;1595826;88;25780;-78
2022/05/30 01:53:32;;;;;;;14.23;7.78;;;;;;;11.37;84.88;100129.02;1613713;87;25795;-77
2022/05/30 01:56:00;;;;;;;12.85;8.13;;;;;;;11.38;84.86;100121.27;1604479;87;26582;-77
2022/05/30 01:58:27;;;;;;;14.23;8.40;;;;;;;11.40;84.93;100125.92;1599482;87;27604;-79
2022/05/30 02:01:21;;;;;;;12.75;8.45;;;;;;;11.42;85.07;100123.02;1601007;86;26463;-77
2022/05/30 02:03:50;;;;;;;10.43;7.58;;;;;;;11.44;84.97;100127.70;1613962;88;25783;-77
2022/05/30 02:06:16;;;;;;;12.43;8.78;;;;;;;11.46;85.07;100121.61;1659304;85;26544;-77
2022/05/30 02:08:43;;;;;;;11.00;8.70;;;;;;;11.48;85.13;100127.59;1643393;85;26546;-77
2022/05/30 02:11:10;;;;;;;12.63;8.23;;;;;;;11.49;85.26;100123.87;1633541;85;27477;-78
2022/05/30 02:13:38;;;;;;;14.85;9.00;;;;;;;11.45;85.33;100126.65;1621928;86;25809;-77
2022/05/30 02:19:00;;;;;;;12.55;8.43;;;;;;;11.42;85.50;100120.34;1600473;87;25938;-77
2022/05/30 02:21:26;;;;;;;11.08;8.45;;;;;;;11.45;85.78;100126.14;1617328;87;25356;-77
2022/05/30 02:23:53;;;;;;;16.90;8.78;;;;;;;11.45;85.84;100131.50;1615341;86;28678;-77
2022/05/30 02:26:19;;;;;;;11.97;8.30;;;;;;;11.47;85.77;100124.59;1620955;86;26017;-77
2022/05/30 02:28:46;;;;;;;8.85;7.70;;;;;;;11.51;85.97;100121.80;1628962;87;25882;-77
2022/05/30 02:31:12;;;;;;;10.30;8.85;;;;;;;11.53;86.01;100125.94;1620191;87;26358;-77
2022/05/30 02:36:39;;;;;;;14.50;8.60;;;;;;;11.54;86.02;100111.52;1608419;86;27578;-77
2022/05/30 02:39:18;;;;;;;15.68;9.95;;;;;;;11.55;86.17;100119.02;1593656;87;25923;-77
2022/05/30 02:42:04;;;;;;;11.48;8.08;;;;;;;11.55;86.32;100115.00;1592829;88;25809;-78
2022/05/30 02:44:32;;;;;;;12.87;8.80;;;;;;;11.56;86.43;100119.34;1619854;85;26310;-78
2022/05/30 02:46:59;;;;;;;12.23;9.05;;;;;;;11.57;86.53;100119.64;1639577;85;25824;-77
2022/05/30 02:49:27;;;;;;;15.03;9.48;;;;;;;11.57;86.52;100108.41;1625783;86;27486;-77
2022/05/30 02:51:55;;;;;;;16.52;10.13;;;;;;;11.59;86.54;100113.55;1615551;86;25859;-78
2022/05/30 02:54:22;;;;;;;14.65;9.73;;;;;;;11.62;86.56;100110.48;1619171;86;26499;-78
2022/05/30 02:56:57;;;;;;;12.88;9.25;;;;;;;11.60;86.62;100112.54;1569738;86;26754;-77
2022/05/30 02:59:26;;;;;;;10.60;8.78;;;;;;;11.58;86.59;100110.07;1629190;85;25917;-77
2022/05/30 03:01:55;;;;;;;10.88;8.65;;;;;;;11.56;86.58;100110.80;1641894;85;27567;-77
2022/05/30 03:04:23;;;;;;;13.15;9.00;;;;;;;11.52;86.60;100112.23;1631603;86;25821;-77
2022/05/30 03:06:49;;;;;;;9.80;8.55;;;;;;;11.48;86.84;100113.65;1628836;86;25816;-77
2022/05/30 03:09:18;;;;;;;12.37;9.08;;;;;;;11.46;86.96;100115.70;1577248;88;25927;-77
2022/05/30 03:11:58;;;;;;;14.20;9.13;;;;;;;11.45;87.00;100110.05;1593737;87;26465;-78
2022/05/30 03:14:24;;;;;;;10.82;8.73;;;;;;;11.42;87.21;100113.12;1611278;87;27485;-78
2022/05/30 03:16:52;;;;;;;11.90;8.93;;;;;;;11.41;87.23;100110.16;1635186;85;25945;-77
2022/05/30 03:19:18;;;;;;;11.90;8.80;;;;;;;11.43;87.37;100111.28;1638959;85;25904;-77
2022/05/30 03:21:45;;;;;;;12.50;9.58;;;;;;;11.44;87.58;100111.61;1632843;85;26653;-78
2022/05/30 03:24:11;;;;;;;15.95;9.80;;;;;;;11.44;87.81;100114.28;1634667;85;26065;-78
2022/05/30 03:26:39;;;;;;;10.40;9.28;;;;;;;11.42;87.84;100111.78;1642804;85;27440;-78
2022/05/30 03:29:05;;;;;;;15.68;9.68;;;;;;;11.41;88.03;100110.16;1640581;85;25866;-78
2022/05/30 03:31:32;;;;;;;12.47;8.90;;;;;;;11.41;87.95;100114.17;1633497;85;26010;-78
2022/05/30 03:33:58;;;;;;;13.60;8.38;;;;;;;11.45;88.12;100115.92;1639110;85;26559;-78
2022/05/30 03:36:27;;;;;;;14.13;8.50;;;;;;;11.48;88.10;100114.19;1642374;85;25836;-78
2022/05/30 03:39:13;;;;;;;10.82;8.03;;;;;;;11.49;88.31;100113.14;1635062;85;27480;-78
2022/05/30 03:41:58;;;;;;;11.75;8.38;;;;;;;11.54;88.40;100114.20;1642065;85;25854;-77
2022/05/30 03:44:26;;;;;;;13.85;9.45;;;;;;;11.60;88.56;100113.38;1639163;85;25774;-77
2022/05/30 03:46:52;;;;;;;15.38;9.00;;;;;;;11.62;88.45;100110.48;1630680;85;25901;-77
2022/05/30 03:49:18;;;;;;;9.95;8.55;;;;;;;11.63;88.42;100109.46;1644327;85;26570;-77
2022/05/30 03:51:44;;;;;;;11.33;8.18;;;;;;;11.62;88.22;100106.45;1636471;86;27446;-78
2022/05/30 03:54:10;;;;;;;11.45;8.58;;;;;;;11.63;88.37;100107.58;1640249;85;25875;-77
2022/05/30 03:56:37;;;;;;;12.47;9.05;;;;;;;11.66;88.46;100114.39;1641331;85;26435;-77
2022/05/30 03:59:03;;;;;;;11.93;8.60;;;;;;;11.67;88.78;100109.39;1618180;86;26691;-77
2022/05/30 04:01:29;;;;;;;11.40;8.90;;;;;;;11.67;88.79;100109.39;1641621;85;25848;-77
2022/05/30 04:03:56;;;;;;;11.97;8.68;;;;;;;11.71;88.83;100107.94;1641753;85;27454;-77
2022/05/30 04:06:22;;;;;;;13.60;8.93;;;;;;;11.73;88.88;100111.75;1642826;85;25840;-77
2022/05/30 04:08:49;;;;;;;14.30;8.25;;;;;;;11.76;88.84;100102.77;1641642;85;25711;-77
2022/05/30 04:11:32;;;;;;;14.93;8.53;;;;;;;11.79;88.96;100102.36;1580967;88;25852;-77
2022/05/30 04:14:17;;;;;;;12.23;9.20;;;;;;;11.81;88.96;100101.64;1613586;86;26419;-77
2022/05/30 04:16:50;;;;;;;13.90;8.88;;;;;;;11.79;88.78;100098.84;1590439;87;28439;-77
2022/05/30 04:19:17;;;;;;;12.10;8.68;;;;;;;11.79;88.74;100097.50;1622518;86;25836;-77
2022/05/30 04:21:44;;;;;;;11.25;9.65;;;;;;;11.82;88.92;100106.50;1622330;86;25900;-77
2022/05/30 04:24:11;;;;;;;12.90;8.98;;;;;;;11.82;88.85;100107.84;1622872;86;26555;-77
2022/05/30 04:26:39;;;;;;;14.53;9.10;;;;;;;11.83;88.94;100098.73;1605718;86;26529;-77
2022/05/30 04:29:07;;;;;;;11.63;8.68;;;;;;;11.86;89.16;100099.68;1607430;87;27478;-77
2022/05/30 04:31:52;;;;;;;9.58;8.13;;;;;;;11.92;89.38;100105.56;1630761;86;25637;-77
2022/05/30 04:34:18;;;;;;;9.75;8.10;;;;;;;11.90;89.23;100096.89;1616080;86;25771;-78
2022/05/30 04:36:45;;;;;;;15.80;8.20;;;;;;;11.88;89.16;100103.81;1619066;87;25925;-77
2022/05/30 04:39:11;;;;;;;12.20;9.50;;;;;;;11.87;89.09;100098.66;1612105;87;25845;-77
2022/05/30 04:41:42;;;;;;;11.60;9.53;;;;;;;11.86;89.20;100101.02;1589008;87;27498;-77
2022/05/30 04:44:27;;;;;;;11.55;8.75;;;;;;;11.82;89.35;100102.47;1609446;87;25934;-77
2022/05/30 04:47:12;;;;;;;11.60;8.25;;;;;;;11.83;89.49;100101.42;1601059;86;26536;-77
2022/05/30 04:49:40;;;;;;;13.48;9.60;;;;;;;11.83;89.64;100098.23;1603916;87;26447;-77
2022/05/30 04:52:07;;;;;;;12.18;9.85;;;;;;;11.84;89.68;100099.90;1615397;87;26049;-77
2022/05/30 04:54:34;;;;;;;11.73;9.23;;;;;;;11.87;89.76;100102.15;1577599;88;27735;-77
2022/05/30 04:57:14;;;;;;;11.88;8.30;;;;;;;11.91;89.84;100099.90;1634472;85;26073;-77
2022/05/30 04:59:52;;;;;;;13.60;8.98;;;;;;;11.95;89.92;100108.67;1651105;85;25880;-78
2022/05/30 05:02:19;;;;;;;16.20;9.55;;;;;;;11.97;89.85;100101.23;1640238;85;25849;-77
2022/05/30 05:04:46;;;;;;;13.10;9.20;;;;;;;11.96;89.90;100104.94;1631094;85;26488;-77
2022/05/30 05:07:12;;;;;;;15.90;9.80;;;;;;;11.96;89.97;100100.91;1597929;88;27481;-77
2022/05/30 05:09:54;;;;;;;14.98;10.63;;;;;;;11.95;90.08;100100.62;1631464;85;25840;-77
2022/05/30 05:12:33;;;;;;;13.75;9.58;;;;;;;11.94;90.21;100096.27;1565822;90;26003;-77
2022/05/30 05:15:07;;;;;;;11.93;9.58;;;;;;;11.95;90.25;100093.91;1587018;86;26795;-77
2022/05/30 05:17:44;;;;;;;12.58;9.58;;;;;;;11.95;90.24;100101.13;1588109;88;26070;-77
2022/05/30 05:20:11;;;;;;;11.22;9.88;;;;;;;11.94;90.23;100091.41;1587954;88;27652;-77
2022/05/30 05:22:39;;;;;;;13.45;10.05;;;;;;;11.92;90.28;100089.45;1608019;87;26597;-77
2022/05/30 05:25:07;;;;;;;12.28;9.90;;;;;;;11.89;90.43;100090.69;1604629;87;25836;-77
2022/05/30 05:27:39;;;;;;;12.65;9.75;;;;;;;11.83;90.58;100088.84;1605808;87;25792;-78
2022/05/30 05:30:10;;;;;;;12.80;9.90;;;;;;;11.79;90.75;100092.14;1610500;87;25815;-78
2022/05/30 05:32:37;;;;;;;13.60;10.40;;;;;;;11.79;91.02;100094.82;1608958;87;27645;-77
2022/05/30 05:35:06;;;;;;;11.68;8.95;;;;;;;11.77;90.96;100090.18;1608081;87;26043;-78
2022/05/30 05:37:35;;;;;;;12.68;9.80;;;;;;;11.76;90.99;100093.38;1611363;87;25851;-78
2022/05/30 05:40:05;;;;;;;13.32;9.70;;;;;;;11.76;91.13;100096.59;1607262;87;25901;-77
2022/05/30 05:42:31;;;;;;;17.23;9.75;;;;;;;11.73;91.08;100092.97;1602112;88;26082;-77
2022/05/30 05:44:58;;;;;;;15.43;10.13;;;;;;;11.73;91.26;100093.80;1605370;88;27696;-78
2022/05/30 05:47:24;;;;;;;13.22;10.43;;;;;;;11.73;91.36;100097.83;1633257;85;25938;-77
2022/05/30 05:49:51;;;;;;;15.03;10.10;;;;;;;11.69;91.25;100097.94;1653631;85;25886;-78
2022/05/30 05:52:17;;;;;;;11.18;9.33;;;;;;;11.65;91.63;100094.78;1631532;85;26554;-78
2022/05/30 05:54:44;;;;;;;14.07;10.10;;;;;;;11.61;91.83;100092.20;1633093;85;25843;-78
2022/05/30 05:57:11;;;;;;;11.38;9.65;;;;;;;11.60;92.03;100090.57;1634637;85;28341;-78
2022/05/30 05:59:45;;;;;;;15.58;10.98;;;;;;;11.57;92.19;100089.62;1623492;87;25889;-77
2022/05/30 06:02:11;;;;;;;13.80;10.68;;;;;;;11.56;92.34;100086.66;1624240;86;25785;-77
2022/05/30 06:04:39;;;;;;;14.83;11.18;;;;;;;11.54;92.26;100086.54;1637229;85;26630;-78
2022/05/30 06:07:06;;;;;;;15.00;11.00;;;;;;;11.53;92.55;100087.55;1631384;85;25891;-77
2022/05/30 06:09:34;;;;;;;12.82;10.88;;;;;;;11.51;92.64;100081.06;1630581;85;28335;-78
2022/05/30 06:12:07;;;;;;;;;;;;;;;11.53;92.81;100083.53;1656126;85;26520;-78
2022/05/30 06:14:36;;;;;;;14.53;10.50;;;;;;;11.47;92.97;100086.53;1654187;85;26550;-78
2022/05/30 06:17:05;;;;;;;12.88;11.03;;;;;;;11.40;93.34;100078.98;1628180;85;25773;-77
2022/05/30 06:19:34;;;;;;;13.13;11.25;;;;;;;11.41;93.70;100081.99;1652728;85;25562;-78
2022/05/30 06:22:00;;;;;;;15.58;11.73;;;;;;;11.44;93.74;100081.56;1641655;85;27615;-77
2022/05/30 06:24:27;;;;;;;14.47;11.20;;;;;;;11.45;93.60;100075.70;1643735;86;25921;-78
2022/05/30 06:26:58;;;;;;;12.73;10.82;;;;;;;11.45;93.79;100079.20;1623062;85;26048;-77
2022/05/30 06:29:29;;;;;;;12.80;10.35;;;;;;;11.44;93.83;100078.88;1627524;85;26565;-78
2022/05/30 06:31:57;;;;;;;13.88;10.35;;;;;;;11.45;93.95;100081.06;1628415;85;25854;-78
2022/05/30 06:34:25;;;;;;;11.63;9.75;;;;;;;11.44;94.05;100076.73;1620530;86;27522;-78
2022/05/30 06:36:51;;;;;;;14.18;11.08;;;;;;;11.41;94.56;100074.45;1628443;85;25836;-78
2022/05/30 06:39:18;;;;;;;11.03;9.88;;;;;;;11.42;94.38;100081.45;1627698;85;25359;-78
2022/05/30 06:41:48;;;;;;;11.90;9.55;;;;;;;11.46;94.58;100078.70;1622053;86;26580;-78
2022/05/30 06:44:14;;;;;;;12.07;9.60;;;;;;;11.47;94.69;100078.99;1628551;85;26568;-77
2022/05/30 06:46:43;;;;;;;11.05;9.33;;;;;;;11.46;94.73;100076.82;1630080;85;28530;-78
2022/05/30 06:49:28;;;;;;;14.10;9.75;;;;;;;11.49;95.02;100075.08;1652381;85;26002;-78
2022/05/30 06:51:56;;;;;;;16.75;10.08;;;;;;;11.51;94.99;100077.55;1646570;85;25281;-78
2022/05/30 06:54:22;;;;;;;10.70;8.95;;;;;;;11.52;95.07;100080.05;1638200;85;26721;-78
2022/05/30 06:59:35;;;;;;;10.68;8.38;;;;;;;11.56;95.35;100079.11;1561391;90;27525;-78
2022/05/30 07:02:05;;;;;;;10.05;8.10;;;;;;;11.60;95.32;100074.98;1564348;90;26757;-78
2022/05/30 07:04:36;;;;;;;9.45;7.92;;;;;;;11.57;95.02;100070.85;1583338;85;25722;-78
2022/05/30 07:07:21;;;;;;;8.25;7.08;;;;;;;11.55;94.81;100072.08;1634227;85;25787;-78
2022/05/30 07:10:08;;;;;;;10.08;7.58;;;;;;;11.54;94.69;100079.84;1648053;85;25779;-78
2022/05/30 07:12:39;;;;;;;8.30;7.45;;;;;;;11.53;94.80;100076.32;1631913;85;27561;-77
2022/05/30 07:15:07;;;;;;;9.53;7.80;;;;;;;11.56;94.86;100075.09;1620540;85;26468;-77
2022/05/30 07:17:36;;;;;;;8.93;7.75;;;;;;;11.61;95.02;100075.31;1633438;86;25823;-77
2022/05/30 07:20:02;;;;;;;9.35;7.12;;;;;;;11.67;95.14;100073.17;1624537;87;27058;-77
2022/05/30 07:22:31;;;;;;;10.70;7.50;;;;;;;11.70;94.97;100077.30;1592462;86;25599;-77
2022/05/30 07:25:16;;;;;;;7.87;6.30;;;;;;;11.71;94.43;100080.28;1641532;85;27448;-77
2022/05/30 07:28:03;;;;;;;7.45;6.53;;;;;;;11.71;94.20;100074.91;1599986;87;25655;-77
2022/05/30 07:30:41;;;;;;;8.33;6.42;;;;;;;11.76;94.23;100076.47;1553115;92;26098;-77
2022/05/30 07:33:26;;;;;;;7.47;6.78;;;;;;;11.81;94.29;100078.00;1611323;85;25796;-77
2022/05/30 07:36:20;;;;;;;6.62;5.87;;;;;;;11.86;94.48;100075.02;1619046;85;25771;-77
2022/05/30 07:38:55;;;;;;;6.87;6.03;;;;;;;11.87;93.88;100076.66;1586903;86;27494;-77
2022/05/30 07:41:27;;;;;;;8.60;6.10;;;;;;;11.89;93.44;100077.81;1606627;86;26302;-77
2022/05/30 07:44:13;;;;;;;6.45;5.85;;;;;;;11.90;93.63;100081.62;1590061;88;26550;-77
2022/05/30 07:46:43;;;;;;;6.97;6.00;;;;;;;11.93;93.22;100081.73;1593699;88;25834;-77
2022/05/30 07:49:20;;;;;;;10.05;6.67;;;;;;;11.97;93.21;100086.98;1573210;88;26004;-77
2022/05/30 07:51:58;;;;;;;7.50;6.30;;;;;;;12.02;93.56;100089.34;1595665;88;27537;-77
2022/05/30 07:54:34;;;;;;;9.65;6.50;;;;;;;12.05;93.79;100089.44;1582842;88;25894;-77
2022/05/30 07:57:04;;;;;;;;;;;;;;;12.07;93.52;100088.20;1606803;86;25997;-77
2022/05/30 07:59:31;;;;;;;8.58;6.20;;;;;;;12.08;93.14;100091.19;1612874;87;25798;-77
2022/05/30 08:01:58;;;;;;;7.30;6.00;;;;;;;12.07;93.05;100092.23;1631310;85;25961;-77
2022/05/30 08:04:25;;;;;;;8.13;6.47;;;;;;;12.07;93.02;100090.89;1620357;85;27543;-77
2022/05/30 08:06:58;;;;;;;7.15;6.05;;;;;;;12.10;93.10;100094.48;1620473;86;25871;-77
2022/05/30 08:09:32;;;;;;;6.60;5.90;;;;;;;12.16;93.72;100090.16;1604443;86;26020;-77
2022/05/30 08:12:04;;;;;;;7.70;6.83;;;;;;;12.17;93.44;100085.08;1629561;86;26021;-77
2022/05/30 08:14:49;;;;;;;8.18;7.47;;;;;;;12.21;93.62;100085.80;1614549;86;25962;-77
2022/05/30 08:17:16;;;;;;;7.35;6.60;;;;;;;12.26;93.17;100091.37;1611174;86;27557;-77
2022/05/30 08:19:42;;;;;;;7.00;6.15;;;;;;;12.31;93.60;100081.34;1591572;88;26571;-77
2022/05/30 08:22:11;;;;;;;7.45;6.40;;;;;;;12.36;93.60;100089.58;1571087;88;26493;-77
2022/05/30 08:24:41;;;;;;;6.87;6.03;;;;;;;12.39;93.40;100086.48;1608830;87;25840;-77
2022/05/30 08:27:10;;;;;;;7.72;5.50;;;;;;;12.47;93.71;100090.28;1607568;87;25810;-77
2022/05/30 08:29:51;;;;;;;9.48;5.83;;;;;;;12.47;92.92;100086.79;1598688;88;27488;-77
2022/05/30 08:32:18;;;;;;;6.92;5.53;;;;;;;12.45;92.63;100084.30;1617865;86;25924;-77
2022/05/30 08:34:58;;;;;;;6.25;5.60;;;;;;;12.48;93.10;100091.11;1609328;88;25865;-77
2022/05/30 08:37:30;;;;;;;7.62;5.45;;;;;;;12.50;92.53;100094.41;1606366;87;26258;-77
2022/05/30 08:42:38;;;;;;;5.85;5.20;;;;;;;12.43;92.27;100087.71;1613328;87;28322;-77
2022/05/30 08:45:17;;;;;;;8.28;5.75;;;;;;;12.45;92.54;100088.33;1613649;87;25899;-77
2022/05/30 08:47:52;;;;;;;6.55;5.17;;;;;;;12.46;92.57;100089.16;1609571;87;25652;-77
2022/05/30 08:50:57;;;;;;;9.10;5.60;;;;;;;12.49;92.68;100084.17;1615433;87;25782;-77
2022/05/30 08:53:36;;;;;;;6.37;4.85;;;;;;;12.52;92.39;100091.82;1599708;87;25947;-77
2022/05/30 08:56:34;;;;;;;5.33;4.83;;;;;;;12.54;91.85;100089.75;1612730;87;27473;-77
2022/05/30 09:00:00;;;;;;;5.12;4.62;;;;;;;12.51;91.72;100087.47;1615733;87;26521;-77
2022/05/30 09:02:38;;;;;;;6.10;5.17;;;;;;;12.56;91.68;100082.81;1582162;87;26721;-77
2022/05/30 09:05:29;;;;;;;7.03;5.60;;;;;;;12.55;90.99;100081.18;1605781;87;25866;-77
2022/05/30 09:08:00;;;;;;;6.37;5.15;;;;;;;12.53;91.11;100081.37;1615624;87;26425;-77
2022/05/30 09:10:33;;;;;;;6.72;4.95;;;;;;;12.56;91.26;100079.61;1594412;87;27498;-77
2022/05/30 09:13:23;;;;;;;6.95;4.20;;;;;;;12.57;90.55;100074.56;1634114;85;25837;-77
2022/05/30 09:16:30;;;;;;;5.72;5.12;;;;;;;12.61;90.96;100073.61;1625828;86;25783;-77
2022/05/30 09:19:01;;;;;;;4.78;4.37;;;;;;;12.67;91.19;100072.75;1631563;85;25919;-77
2022/05/30 09:21:31;;;;;;;6.45;4.50;;;;;;;12.72;90.76;100076.47;1630503;85;25621;-77
2022/05/30 09:23:58;;;;;;;5.53;5.03;;;;;;;12.73;90.77;100068.70;1636288;85;27429;-77
2022/05/30 09:26:32;;;;;;;5.12;4.15;;;;;;;12.80;91.01;100076.73;1617301;85;25832;-77
2022/05/30 09:29:05;;;;;;;4.47;3.90;;;;;;;12.87;90.44;100074.84;1636682;85;26262;-77
2022/05/30 09:31:40;;;;;;;5.10;4.22;;;;;;;12.96;90.67;100072.19;1605589;88;26329;-78
2022/05/30 09:34:31;;;;;;;3.60;3.15;;;;;;;13.09;90.88;100072.16;1603219;88;25792;-78
2022/05/30 09:37:38;;;;;;;3.77;3.37;;;;;;;13.15;89.43;100069.98;1632737;85;27488;-77
2022/05/30 09:40:15;;;;;;;4.50;3.27;;;;;;;13.26;88.79;100075.19;1641356;85;25921;-77
2022/05/30 09:43:00;;;;;;;3.62;3.33;;;;;;;13.33;88.50;100071.91;1590189;88;25666;-77
2022/05/30 09:45:30;;;;;;;4.33;3.22;;;;;;;13.47;89.24;100070.25;1646102;85;26575;-78
2022/05/30 09:48:18;;;;;;;3.05;2.72;;;;;;;13.61;88.75;100072.33;1631505;85;25936;-77
2022/05/30 09:50:58;;;;;;;3.27;2.30;;;;;;;13.67;87.37;100069.59;1633202;85;28095;-77
2022/05/30 09:53:42;;;;;;;3.10;2.80;;;;;;;13.77;86.77;100072.59;1636701;85;26509;-78
2022/05/30 09:56:13;;;;;;;4.42;2.85;;;;;;;13.81;86.36;100080.53;1632898;85;26529;-78
2022/05/30 09:59:00;;;;;;;3.90;3.00;;;;;;;13.93;87.34;100081.48;1628125;85;25882;-78
2022/05/30 10:01:35;;;;;;;6.40;3.40;;;;;;;14.04;86.72;100081.28;1636495;85;25846;-77
2022/05/30 10:04:43;;;;;;;3.85;3.45;;;;;;;14.20;88.12;100080.70;1605443;87;27546;-77
2022/05/30 10:07:18;;;;;;;4.15;3.70;;;;;;;14.24;86.33;100081.09;1614475;87;25881;-77
2022/05/30 10:09:55;;;;;;;;;;;;;;;14.31;87.17;100082.69;1599542;88;26582;-77
2022/05/30 10:12:36;;;;;;;3.60;3.30;;;;;;;14.37;87.02;100081.79;1615474;86;25611;-77
2022/05/30 10:15:35;;;;;;;4.53;3.22;;;;;;;14.35;85.74;100081.19;1577057;88;25816;-77
2022/05/30 10:18:23;;;;;;;4.70;3.60;;;;;;;14.41;84.94;100084.33;1584465;88;27642;-77
2022/05/30 10:28:14;;;;;;;5.67;3.58;;;;;;;14.40;84.77;100084.56;1593825;88;25783;-77
2022/05/30 10:28:17;;;;;;;4.35;3.05;;;;;;;14.52;83.77;100086.28;1600878;87;25827;-77
2022/05/30 10:31:34;;;;;;;4.47;3.40;;;;;;;14.61;83.69;100086.81;1594472;87;26595;-77
2022/05/30 10:34:39;;;;;;;3.07;2.67;;;;;;;14.73;84.89;100094.98;1608973;87;28379;-77
2022/05/30 10:37:20;;;;;;;3.20;2.33;;;;;;;14.82;84.18;100094.43;1584140;88;25957;-77
2022/05/30 10:40:04;;;;;;;4.25;3.00;;;;;;;14.89;82.69;100091.14;1605736;87;25851;-77
2022/05/30 10:43:20;;;;;;;3.65;2.77;;;;;;;14.95;82.05;100095.62;1612515;87;27731;-77
2022/05/30 10:46:00;;;;;;;3.60;2.70;;;;;;;14.91;80.43;100102.52;1597657;87;25848;-77
2022/05/30 10:48:40;;;;;;;4.13;2.80;;;;;;;14.91;81.38;100103.04;1606323;86;27586;-77
2022/05/30 10:51:12;;;;;;;3.25;2.87;;;;;;;14.99;82.12;100108.14;1637798;86;25832;-77
2022/05/30 10:54:05;;;;;;;5.67;3.67;;;;;;;15.01;81.67;100106.84;1588574;88;25975;-77
2022/05/30 10:56:50;;;;;;;5.15;3.12;;;;;;;15.12;82.23;100119.56;1616598;85;25837;-77
2022/05/30 10:59:38;;;;;;;4.97;2.80;;;;;;;15.20;81.65;100113.88;1632115;85;26248;-77
2022/05/30 11:02:29;;;;;;;4.90;2.80;;;;;;;15.24;81.92;100117.77;1640355;86;27674;-77
2022/05/30 11:05:15;;;;;;;3.60;2.77;;;;;;;15.27;80.97;100115.94;1633773;86;25788;-77
2022/05/30 11:08:08;;;;;;;3.27;2.85;;;;;;;15.25;80.51;100111.30;1630389;85;26575;-77
2022/05/30 11:10:58;;;;;;;3.75;2.45;;;;;;;15.22;80.72;100113.64;1624348;86;25790;-77
2022/05/30 11:14:09;;;;;;;3.13;2.83;;;;;;;15.27;80.82;100113.23;1619722;87;25893;-77
2022/05/30 11:17:22;;;;;;;3.15;2.67;;;;;;;15.33;81.39;100113.67;1612336;86;27480;-77
2022/05/30 11:20:15;;;;;;;2.63;2.43;;;;;;;15.32;80.13;100117.44;1624358;86;25872;-77
2022/05/30 11:22:48;;;;;;;3.85;2.72;;;;;;;15.32;79.86;100116.08;1614483;86;26554;-77
2022/05/30 11:25:32;;;;;;;3.20;2.83;;;;;;;15.31;79.72;100118.47;1620893;86;26016;-77
2022/05/30 11:28:09;;;;;;;5.20;3.67;;;;;;;15.30;79.56;100112.80;1612031;86;25852;-77
2022/05/30 11:30:50;;;;;;;5.10;3.30;;;;;;;15.35;80.95;100113.46;1609498;86;27513;-77
2022/05/30 11:33:43;;;;;;;4.60;3.22;;;;;;;15.39;79.82;100119.52;1608181;87;25869;-77
2022/05/30 11:36:52;;;;;;;3.15;2.85;;;;;;;15.37;79.25;100118.09;1598921;87;26106;-77
2022/05/30 11:39:35;;;;;;;5.05;3.40;;;;;;;15.40;79.79;100118.45;1605576;87;26692;-77
2022/05/30 11:42:25;;;;;;;4.22;3.83;;;;;;;15.55;79.74;100124.80;1602389;87;26487;-77
2022/05/30 11:44:59;;;;;;;4.73;3.97;;;;;;;15.63;79.34;100123.12;1581493;88;27533;-77
2022/05/30 11:47:49;;;;;;;5.97;4.92;;;;;;;15.71;79.98;100124.68;1615810;87;25825;-77
2022/05/30 11:50:34;;;;;;;4.17;2.90;;;;;;;15.73;79.39;100127.45;1585222;88;25590;-77
2022/05/30 11:53:32;;;;;;;3.30;3.00;;;;;;;15.63;75.87;100126.37;1639447;86;26606;-77
2022/05/30 11:56:04;;;;;;;6.85;3.02;;;;;;;15.56;75.52;100126.98;1614182;86;25826;-77
2022/05/30 11:58:39;;;;;;;3.62;2.47;;;;;;;15.41;75.26;100134.12;1615851;87;28330;-77
2022/05/30 12:01:08;;;;;;;4.58;2.92;;;;;;;15.22;74.81;100147.37;1609648;88;25830;-78
2022/05/30 12:04:25;;;;;;;4.50;2.58;;;;;;;15.08;75.83;100148.05;1610804;87;26620;-77
2022/05/30 12:07:11;;;;;;;8.30;4.33;;;;;;;14.95;75.39;100144.16;1583848;89;25793;-77
2022/05/30 12:09:55;;;;;;;8.13;4.05;;;;;;;14.73;76.13;100157.82;1584805;89;26039;-77
2022/05/30 12:12:57;;;;;;;5.12;4.17;;;;;;;14.55;76.52;100157.79;1618147;85;27479;-77
2022/05/30 12:16:07;;;;;;;8.33;4.37;;;;;;;14.45;77.40;100154.80;1625861;86;26188;-77
2022/05/30 12:24:37;;;;;;;11.88;7.15;;;;;;;14.24;79.09;100165.41;1600554;88;25991;-77